Time;durP1;ratioP1;P1;durP2;ratioP2;P2;SDS_P1;SDS_P2;PMS_P1;PMS_P2;Temp;Humidity;BMP_temperature;BMP_pressure;BME280_temperature;BME280_humidity;BME280_pressure;Samples;Min_cycle;Max_cycle;Signal;HPM_P1;HPM_P2
2022/03/30 04:29:40;;;;;;;3.55;2.00;;;8.40;99.90;;;;;;5086921;22;20236;-68
2022/03/30 04:32:08;;;;;;;1.73;1.58;;;8.30;99.90;;;;;;5056290;28;20632;-68
2022/03/30 04:34:35;;;;;;;2.17;1.95;;;8.30;99.90;;;;;;5056258;28;20227;-68
2022/03/30 04:37:02;;;;;;;1.73;1.63;;;8.30;99.90;;;;;;5056020;28;20742;-68
2022/03/30 04:39:29;;;;;;;1.33;1.23;;;8.30;99.90;;;;;;5055836;28;20707;-68
2022/03/30 04:41:56;;;;;;;1.50;1.50;;;8.30;99.90;;;;;;5056305;28;20296;-67
2022/03/30 04:44:25;;;;;;;1.85;1.70;;;8.30;99.90;;;;;;5055811;28;20668;-70
2022/03/30 04:46:54;;;;;;;1.92;1.67;;;8.30;99.90;;;;;;5056223;28;20200;-68
2022/03/30 04:49:22;;;;;;;1.60;1.58;;;8.20;99.90;;;;;;5056349;28;20220;-70
2022/03/30 04:51:49;;;;;;;1.52;1.42;;;8.20;99.90;;;;;;5056461;28;20229;-70
2022/03/30 04:54:17;;;;;;;1.13;1.13;;;8.10;99.90;;;;;;5054646;28;20220;-70
2022/03/30 04:56:44;;;;;;;1.60;1.50;;;8.10;99.90;;;;;;5055657;28;20684;-70
2022/03/30 04:59:11;;;;;;;1.73;1.63;;;8.10;99.90;;;;;;5055615;28;20217;-70
2022/03/30 05:01:38;;;;;;;1.85;1.42;;;8.00;99.90;;;;;;5055853;28;20207;-70
2022/03/30 05:04:07;;;;;;;2.03;1.92;;;8.00;99.90;;;;;;5055791;28;20225;-70
2022/03/30 05:06:34;;;;;;;2.10;2.00;;;8.00;99.90;;;;;;5055943;28;20200;-70
2022/03/30 05:09:01;;;;;;;3.33;1.92;;;8.00;99.90;;;;;;5055834;28;20307;-70
2022/03/30 05:11:28;;;;;;;4.85;2.33;;;8.00;99.90;;;;;;5055425;28;20221;-70
2022/03/30 05:13:55;;;;;;;5.68;2.50;;;7.90;99.90;;;;;;5055914;28;20292;-70
2022/03/30 05:16:22;;;;;;;5.32;2.40;;;7.90;99.90;;;;;;5055280;28;20295;-70
2022/03/30 05:18:48;;;;;;;4.18;2.30;;;7.80;99.90;;;;;;5055694;28;20216;-69
2022/03/30 05:21:17;;;;;;;3.58;2.40;;;7.80;99.90;;;;;;5058990;28;20196;-70
2022/03/30 05:23:44;;;;;;;4.57;2.88;;;7.70;99.90;;;;;;5064772;28;20211;-70
2022/03/30 05:26:10;;;;;;;4.60;2.95;;;7.70;99.90;;;;;;5067286;28;20231;-70
2022/03/30 05:28:38;;;;;;;4.97;3.25;;;7.70;99.90;;;;;;5062008;28;20303;-69
2022/03/30 05:31:06;;;;;;;9.20;2.75;;;7.70;99.90;;;;;;5065592;28;20671;-69
2022/03/30 05:33:33;;;;;;;5.78;3.10;;;7.70;99.90;;;;;;5061832;28;20275;-69
2022/03/30 05:35:59;;;;;;;4.55;2.85;;;7.60;99.90;;;;;;5061976;28;20205;-69
2022/03/30 05:38:28;;;;;;;4.38;2.80;;;7.60;99.90;;;;;;5060237;28;20244;-70
2022/03/30 05:40:55;;;;;;;2.70;2.50;;;7.70;99.90;;;;;;5055289;28;20663;-70
2022/03/30 05:43:22;;;;;;;3.22;2.40;;;7.70;99.90;;;;;;5054941;28;20735;-67
2022/03/30 05:45:49;;;;;;;2.67;2.50;;;7.70;99.90;;;;;;5055186;28;20209;-67
2022/03/30 05:48:17;;;;;;;3.80;2.05;;;7.70;99.90;;;;;;5055032;28;20255;-67
2022/03/30 05:50:45;;;;;;;2.40;2.30;;;7.70;99.90;;;;;;5055036;28;20232;-67
2022/03/30 05:53:13;;;;;;;2.78;2.22;;;7.70;99.90;;;;;;5054957;28;20200;-67
2022/03/30 05:55:44;;;;;;;2.20;2.00;;;7.80;99.90;;;;;;5055077;28;20211;-67
2022/03/30 05:58:11;;;;;;;2.88;2.30;;;7.80;99.90;;;;;;5054836;28;20232;-67
2022/03/30 06:00:38;;;;;;;2.95;2.53;;;7.80;99.90;;;;;;5054700;28;20283;-67
2022/03/30 06:03:05;;;;;;;2.67;2.47;;;7.80;99.90;;;;;;5054368;28;20203;-67
2022/03/30 06:05:32;;;;;;;5.75;2.60;;;7.80;99.90;;;;;;5055830;28;20268;-68
2022/03/30 06:07:59;;;;;;;3.17;2.50;;;7.80;99.90;;;;;;5055555;28;20244;-68
2022/03/30 06:10:27;;;;;;;4.13;2.53;;;7.80;99.90;;;;;;5055050;28;20622;-68
2022/03/30 06:12:56;;;;;;;3.40;2.85;;;7.80;99.90;;;;;;5054553;28;20228;-68
2022/03/30 06:15:23;;;;;;;3.45;2.60;;;7.80;99.90;;;;;;5054157;28;20207;-68
2022/03/30 06:17:51;;;;;;;2.65;2.50;;;7.80;99.90;;;;;;5054403;28;20311;-69
2022/03/30 06:20:18;;;;;;;2.53;2.25;;;7.80;99.90;;;;;;5054318;28;20582;-69
2022/03/30 06:22:45;;;;;;;3.03;2.70;;;7.90;99.90;;;;;;5054486;28;20192;-69
2022/03/30 06:25:12;;;;;;;3.53;2.55;;;7.90;99.90;;;;;;5054044;28;20297;-69
2022/03/30 06:27:40;;;;;;;3.42;2.83;;;8.00;99.90;;;;;;5054395;28;20216;-69
2022/03/30 06:30:10;;;;;;;2.83;2.30;;;8.00;99.90;;;;;;5054369;28;20210;-69
2022/03/30 06:32:37;;;;;;;2.97;2.35;;;8.10;99.90;;;;;;5055159;28;20546;-69
2022/03/30 06:35:04;;;;;;;2.13;2.03;;;8.20;99.90;;;;;;5055097;28;20200;-69
2022/03/30 06:37:31;;;;;;;4.07;2.00;;;8.20;99.90;;;;;;5054416;28;20211;-69
2022/03/30 06:39:59;;;;;;;2.63;2.42;;;8.20;99.90;;;;;;5054425;28;20188;-69
2022/03/30 06:42:26;;;;;;;2.65;2.50;;;8.20;99.90;;;;;;5054096;28;20196;-68
2022/03/30 06:44:52;;;;;;;3.90;2.38;;;8.20;99.90;;;;;;5053704;28;20689;-68
2022/03/30 06:47:21;;;;;;;2.40;2.20;;;8.30;99.90;;;;;;5054135;28;20291;-68
2022/03/30 06:49:47;;;;;;;4.03;2.90;;;8.30;99.90;;;;;;5054309;28;20299;-69
2022/03/30 06:52:14;;;;;;;2.42;2.22;;;8.30;99.90;;;;;;5053925;28;20311;-68
2022/03/30 06:54:41;;;;;;;2.83;2.10;;;8.40;99.90;;;;;;5053807;28;20300;-67
2022/03/30 06:57:08;;;;;;;2.40;2.20;;;8.40;99.90;;;;;;5053732;28;20196;-66
2022/03/30 06:59:35;;;;;;;2.45;2.22;;;8.40;99.90;;;;;;5053688;28;20299;-68
2022/03/30 07:02:02;;;;;;;2.08;1.98;;;8.40;99.90;;;;;;5053682;28;20197;-67
2022/03/30 07:04:31;;;;;;;2.45;2.25;;;8.40;99.90;;;;;;5053597;28;20196;-68
2022/03/30 07:12:26;;;;;;;3.30;2.72;;;8.30;99.90;;;;;;5054993;28;20216;-68
2022/03/30 07:14:53;;;;;;;2.33;2.17;;;8.30;99.90;;;;;;5053441;28;20682;-68
2022/03/30 07:17:20;;;;;;;3.63;2.55;;;8.30;99.90;;;;;;5052755;28;20287;-68
2022/03/30 07:19:48;;;;;;;2.78;2.30;;;8.30;99.90;;;;;;5053079;28;20642;-68
2022/03/30 07:22:15;;;;;;;2.97;2.47;;;8.30;99.90;;;;;;5053334;28;20758;-69
2022/03/30 07:24:42;;;;;;;4.32;2.83;;;8.30;99.90;;;;;;5053451;28;20291;-68
2022/03/30 07:27:09;;;;;;;3.25;2.95;;;8.40;99.90;;;;;;5053298;28;20207;-68
2022/03/30 07:29:36;;;;;;;4.00;2.90;;;8.30;99.90;;;;;;5052947;28;20315;-68
2022/03/30 07:32:03;;;;;;;3.00;2.80;;;8.30;99.90;;;;;;5052959;28;20590;-68
2022/03/30 07:34:30;;;;;;;6.53;3.30;;;8.30;99.90;;;;;;5053152;28;20201;-68
2022/03/30 07:36:59;;;;;;;5.30;3.05;;;8.30;99.90;;;;;;5053413;28;20201;-68
2022/03/30 07:39:26;;;;;;;5.47;3.10;;;8.30;99.90;;;;;;5053274;28;20554;-68
2022/03/30 07:41:52;;;;;;;4.32;3.40;;;8.30;99.90;;;;;;5052855;28;20629;-67
2022/03/30 07:44:19;;;;;;;6.03;4.15;;;8.30;99.90;;;;;;5053095;28;20682;-68
2022/03/30 07:46:48;;;;;;;7.90;3.95;;;8.30;99.90;;;;;;5053202;28;20197;-68
2022/03/30 07:49:16;;;;;;;7.55;3.75;;;8.30;99.90;;;;;;5053095;28;20234;-68
2022/03/30 07:51:43;;;;;;;3.72;3.38;;;8.40;99.90;;;;;;5052929;28;20270;-68
2022/03/30 07:54:11;;;;;;;3.83;3.42;;;8.50;99.90;;;;;;5053074;28;20205;-68
2022/03/30 07:56:39;;;;;;;6.45;3.65;;;8.60;99.90;;;;;;5053224;28;20210;-68
2022/03/30 07:59:06;;;;;;;5.30;3.55;;;8.60;99.90;;;;;;5052796;28;20591;-68
2022/03/30 08:01:33;;;;;;;3.92;3.08;;;8.60;99.90;;;;;;5054015;28;20660;-68
2022/03/30 08:03:59;;;;;;;4.13;3.28;;;8.60;99.90;;;;;;5054009;28;20293;-67
2022/03/30 08:06:27;;;;;;;4.00;3.42;;;8.70;99.90;;;;;;5052678;28;20207;-67
2022/03/30 08:08:54;;;;;;;7.63;3.53;;;8.70;99.90;;;;;;5052858;28;20220;-67
2022/03/30 08:11:22;;;;;;;4.38;3.70;;;8.70;99.90;;;;;;5053002;28;20296;-68
2022/03/30 08:13:49;;;;;;;7.03;3.38;;;8.70;99.90;;;;;;5052957;28;20224;-70
2022/03/30 08:16:16;;;;;;;5.95;3.30;;;8.80;99.90;;;;;;5052685;28;20696;-70
2022/03/30 08:18:43;;;;;;;4.50;3.38;;;8.80;99.90;;;;;;5053158;28;20754;-69
2022/03/30 08:23:55;;;;;;;4.05;3.28;;;8.80;99.90;;;;;;5052827;28;20230;-67
2022/03/30 08:26:23;;;;;;;3.58;3.03;;;8.90;99.90;;;;;;5052504;28;20683;-68
2022/03/30 08:28:50;;;;;;;8.20;3.60;;;8.90;99.90;;;;;;5054231;28;20223;-69
2022/03/30 08:31:17;;;;;;;3.72;3.30;;;9.00;99.90;;;;;;5056448;28;20632;-73
2022/03/30 08:33:44;;;;;;;7.32;3.58;;;9.00;99.90;;;;;;5056055;28;20699;-69
2022/03/30 08:36:11;;;;;;;4.70;3.42;;;9.00;99.90;;;;;;5056689;28;20208;-69
2022/03/30 08:38:38;;;;;;;4.95;3.30;;;9.00;99.90;;;;;;5056460;28;20221;-68
2022/03/30 08:41:05;;;;;;;6.65;3.47;;;9.00;99.90;;;;;;5056468;28;20292;-68
2022/03/30 08:43:35;;;;;;;7.95;3.78;;;9.00;99.90;;;;;;5056604;28;20207;-68
2022/03/30 08:46:03;;;;;;;4.43;3.60;;;9.00;99.90;;;;;;5067990;28;20696;-70
2022/03/30 08:48:30;;;;;;;3.88;2.80;;;9.00;99.90;;;;;;5058054;28;20712;-68
2022/03/30 08:50:58;;;;;;;2.55;2.45;;;9.10;99.90;;;;;;5055923;28;20686;-68
2022/03/30 08:53:27;;;;;;;3.10;2.85;;;9.10;99.90;;;;;;5055825;28;20217;-68
2022/03/30 08:55:54;;;;;;;2.78;2.60;;;9.10;99.90;;;;;;5056385;28;20196;-69
2022/03/30 08:58:21;;;;;;;8.02;2.95;;;9.10;99.90;;;;;;5056204;28;20231;-69
2022/03/30 09:00:52;;;;;;;4.45;2.83;;;9.10;99.90;;;;;;5055724;28;20686;-68
2022/03/30 09:03:19;;;;;;;3.95;2.50;;;9.10;99.90;;;;;;5056162;28;20205;-67
2022/03/30 09:05:46;;;;;;;2.47;2.28;;;9.10;99.90;;;;;;5055665;28;20247;-67
2022/03/30 09:08:15;;;;;;;2.70;2.38;;;9.10;99.90;;;;;;5055919;28;20307;-69
2022/03/30 09:10:44;;;;;;;3.58;2.58;;;9.10;99.90;;;;;;5055949;28;20209;-69
2022/03/30 09:13:14;;;;;;;2.20;2.00;;;9.10;99.90;;;;;;5055796;28;20225;-68
2022/03/30 09:15:42;;;;;;;2.90;2.10;;;9.20;99.90;;;;;;5056861;28;20638;-69
2022/03/30 09:18:11;;;;;;;2.53;2.33;;;9.20;99.90;;;;;;5055246;28;20216;-68
2022/03/30 09:20:39;;;;;;;2.60;2.40;;;9.30;99.90;;;;;;5055699;28;20226;-68
2022/03/30 09:23:08;;;;;;;1.77;1.67;;;9.40;99.90;;;;;;5055244;28;20686;-68
2022/03/30 09:25:35;;;;;;;2.17;1.95;;;9.50;99.90;;;;;;5055600;28;20207;-68
2022/03/30 09:28:03;;;;;;;2.33;2.03;;;9.60;99.90;;;;;;5055390;28;20228;-68
2022/03/30 09:30:30;;;;;;;2.70;2.05;;;9.60;99.90;;;;;;5055452;28;20217;-68
2022/03/30 09:32:59;;;;;;;1.52;1.45;;;9.60;99.90;;;;;;5055330;28;20224;-68
2022/03/30 09:35:33;;;;;;;5.45;2.53;;;9.60;99.90;;;;;;5055215;28;20660;-68
2022/03/30 09:38:05;;;;;;;2.72;2.35;;;9.60;99.90;;;;;;5055243;28;20235;-68
2022/03/30 09:40:42;;;;;;;1.83;1.67;;;9.60;99.90;;;;;;5054302;28;20230;-68
2022/03/30 09:43:18;;;;;;;1.83;1.70;;;9.60;99.90;;;;;;5054875;28;20192;-68
2022/03/30 09:45:46;;;;;;;1.60;1.50;;;9.70;99.90;;;;;;5055480;28;20195;-68
2022/03/30 09:48:14;;;;;;;2.25;2.15;;;9.80;99.90;;;;;;5054708;28;20229;-68
2022/03/30 09:50:50;;;;;;;2.65;1.90;;;10.00;99.90;;;;;;5054648;28;20207;-68
2022/03/30 09:53:19;;;;;;;1.88;1.77;;;10.10;99.90;;;;;;5055094;28;20204;-67
2022/03/30 09:55:57;;;;;;;1.75;1.65;;;10.30;99.90;;;;;;5054326;28;20608;-67
2022/03/30 09:58:26;;;;;;;2.55;1.65;;;10.50;99.90;;;;;;5054475;28;20312;-67
2022/03/30 10:01:22;;;;;;;1.55;1.55;;;10.60;99.90;;;;;;5054002;28;20664;-68
2022/03/30 10:03:51;;;;;;;1.98;1.80;;;10.70;99.90;;;;;;5056056;28;20243;-68
2022/03/30 10:06:22;;;;;;;1.90;1.80;;;10.80;99.90;;;;;;5057307;28;20264;-69
2022/03/30 10:08:51;;;;;;;1.60;1.50;;;10.90;99.90;;;;;;5055533;28;20560;-69
2022/03/30 10:11:20;;;;;;;1.85;1.75;;;11.10;99.90;;;;;;5054275;28;20227;-69
2022/03/30 10:13:50;;;;;;;2.17;2.00;;;11.20;99.90;;;;;;5053880;28;20244;-69
2022/03/30 10:16:20;;;;;;;1.63;1.52;;;11.30;99.90;;;;;;5054139;28;20571;-70
2022/03/30 10:18:48;;;;;;;1.80;1.65;;;11.40;99.90;;;;;;5053917;28;20221;-69
2022/03/30 10:21:22;;;;;;;1.38;1.38;;;11.30;99.90;;;;;;5053884;28;20544;-68
2022/03/30 10:24:23;;;;;;;1.30;1.30;;;11.30;99.90;;;;;;5054148;28;20181;-71
2022/03/30 10:26:59;;;;;;;2.45;1.63;;;11.10;99.90;;;;;;5021311;28;20231;-68
2022/03/30 10:29:28;;;;;;;2.70;1.90;;;11.10;99.90;;;;;;5053631;28;20324;-68
2022/03/30 10:32:14;;;;;;;2.95;2.10;;;11.10;99.90;;;;;;5053732;28;20200;-68
2022/03/30 10:34:48;;;;;;;3.65;2.08;;;11.20;99.90;;;;;;5053745;28;20628;-68
2022/03/30 10:37:24;;;;;;;2.20;1.83;;;11.40;99.90;;;;;;5053834;28;20550;-68
2022/03/30 10:39:55;;;;;;;2.17;2.08;;;11.50;99.90;;;;;;5054481;28;20207;-68
2022/03/30 10:42:22;;;;;;;2.72;2.17;;;11.50;99.90;;;;;;5053916;28;20189;-68
2022/03/30 10:44:51;;;;;;;2.20;2.08;;;11.60;99.90;;;;;;5053761;28;20292;-68
2022/03/30 10:47:23;;;;;;;2.55;1.90;;;11.60;99.90;;;;;;5054229;28;20196;-68
2022/03/30 10:49:51;;;;;;;6.50;2.70;;;11.70;99.90;;;;;;5054591;28;20185;-68
2022/03/30 10:52:38;;;;;;;4.15;2.42;;;11.60;99.90;;;;;;5054359;28;20204;-69
2022/03/30 10:55:38;;;;;;;3.58;2.65;;;11.50;99.90;;;;;;5058827;28;20718;-70
2022/03/30 10:58:06;;;;;;;2.58;2.38;;;11.40;99.90;;;;;;5054517;28;20253;-70
2022/03/30 11:00:36;;;;;;;2.22;2.10;;;11.30;99.90;;;;;;5054947;28;20251;-69
2022/03/30 11:03:17;;;;;;;4.68;2.35;;;11.10;99.90;;;;;;5054673;28;20203;-69
2022/03/30 11:05:47;;;;;;;2.65;2.45;;;10.90;99.90;;;;;;5054849;28;20204;-69
2022/03/30 11:09:07;;;;;;;4.97;2.80;;;10.70;99.90;;;;;;5054041;28;20221;-70
2022/03/30 11:11:39;;;;;;;4.30;2.55;;;10.60;99.90;;;;;;5053637;28;20247;-70
2022/03/30 11:14:31;;;;;;;3.17;2.17;;;10.50;99.90;;;;;;5057412;28;20205;-71
2022/03/30 11:17:00;;;;;;;2.83;2.50;;;10.60;99.90;;;;;;5057354;28;20185;-70
2022/03/30 11:19:32;;;;;;;3.22;2.67;;;10.60;99.90;;;;;;5055969;28;20220;-70
2022/03/30 11:22:10;;;;;;;2.35;2.08;;;10.60;99.90;;;;;;5057372;28;20498;-70
2022/03/30 11:24:38;;;;;;;2.42;2.33;;;10.60;99.90;;;;;;5056999;28;20202;-70
2022/03/30 11:27:22;;;;;;;5.10;2.95;;;10.60;99.90;;;;;;5056658;28;20244;-71
2022/03/30 11:30:14;;;;;;;2.85;2.65;;;10.60;99.90;;;;;;5056263;28;20687;-69
2022/03/30 11:32:57;;;;;;;2.92;2.70;;;10.70;99.90;;;;;;5057068;28;20211;-70
2022/03/30 11:35:28;;;;;;;3.22;2.55;;;10.80;99.90;;;;;;5055590;28;20238;-70
2022/03/30 11:38:04;;;;;;;3.05;2.42;;;11.10;99.90;;;;;;5058111;28;20370;-71
2022/03/30 11:40:35;;;;;;;2.92;2.60;;;11.40;99.90;;;;;;5058694;28;20275;-71
2022/03/30 11:43:04;;;;;;;2.50;2.30;;;11.70;99.90;;;;;;5058942;28;20603;-71
2022/03/30 11:45:32;;;;;;;2.40;2.20;;;12.10;99.90;;;;;;5058605;28;20196;-71
2022/03/30 11:48:02;;;;;;;4.00;3.38;;;12.40;99.90;;;;;;5057816;28;20278;-71
2022/03/30 11:50:31;;;;;;;7.25;2.92;;;12.40;99.90;;;;;;5053469;28;20185;-74
2022/03/30 11:53:00;;;;;;;4.57;3.08;;;12.40;99.90;;;;;;5053636;28;20230;-70
2022/03/30 11:55:28;;;;;;;4.10;3.00;;;12.30;99.90;;;;;;5053189;28;20205;-70
2022/03/30 11:57:56;;;;;;;3.75;2.58;;;12.30;99.90;;;;;;5053557;28;20223;-72
2022/03/30 12:00:26;;;;;;;2.75;2.50;;;12.40;99.90;;;;;;5053841;28;20197;-72
2022/03/30 12:02:56;;;;;;;2.70;2.50;;;12.70;99.90;;;;;;5053634;28;20200;-71
2022/03/30 12:05:24;;;;;;;3.47;2.80;;;12.80;99.90;;;;;;5058039;28;20189;-72
2022/03/30 12:07:54;;;;;;;3.05;2.40;;;12.90;99.90;;;;;;5057644;28;20217;-72
2022/03/30 12:10:21;;;;;;;6.32;3.00;;;13.00;99.90;;;;;;5058185;28;20207;-71
2022/03/30 12:12:50;;;;;;;2.67;2.47;;;13.10;99.90;;;;;;5057825;28;20208;-72
2022/03/30 12:15:19;;;;;;;2.80;2.60;;;13.20;99.90;;;;;;5057813;28;20671;-72
2022/03/30 12:17:53;;;;;;;7.43;3.10;;;13.30;99.90;;;;;;5058401;28;20228;-72
2022/03/30 12:20:29;;;;;;;2.70;2.50;;;13.30;99.90;;;;;;5057772;28;20188;-72
2022/03/30 12:22:58;;;;;;;3.50;2.80;;;13.30;99.90;;;;;;5057419;28;20191;-72
2022/03/30 12:25:28;;;;;;;3.60;2.80;;;13.30;99.90;;;;;;5056963;28;20200;-72
2022/03/30 12:27:56;;;;;;;5.50;2.92;;;13.30;99.90;;;;;;5058678;28;20220;-71
2022/03/30 12:30:24;;;;;;;3.55;2.67;;;13.40;99.90;;;;;;5056586;28;20272;-71
2022/03/30 12:32:52;;;;;;;7.18;3.00;;;13.60;99.90;;;;;;5056747;28;20571;-71
2022/03/30 12:35:20;;;;;;;4.93;3.90;;;13.50;99.90;;;;;;5056589;28;20563;-71
2022/03/30 12:37:49;;;;;;;5.30;2.75;;;13.50;99.90;;;;;;5056633;28;20220;-72
2022/03/30 12:40:20;;;;;;;3.67;2.95;;;13.50;99.90;;;;;;5058739;28;20212;-71
2022/03/30 12:42:48;;;;;;;8.43;3.97;;;13.60;99.90;;;;;;5057198;28;20250;-72
2022/03/30 12:45:17;;;;;;;4.57;3.00;;;13.60;99.90;;;;;;5056781;28;20201;-72
2022/03/30 12:47:51;;;;;;;6.38;3.38;;;13.60;99.90;;;;;;5057525;28;20312;-71
2022/03/30 12:50:23;;;;;;;4.25;3.10;;;13.70;99.90;;;;;;5057809;28;20576;-71
2022/03/30 12:52:52;;;;;;;6.38;3.42;;;13.80;99.90;;;;;;5056875;28;20185;-71
2022/03/30 12:55:24;;;;;;;6.45;3.85;;;13.80;99.90;;;;;;5056551;28;20221;-72
2022/03/30 12:58:03;;;;;;;14.65;3.85;;;13.70;99.90;;;;;;5056314;28;20231;-72
2022/03/30 13:00:34;;;;;;;4.57;3.70;;;13.60;99.90;;;;;;5057118;28;20207;-72
2022/03/30 13:03:10;;;;;;;5.68;3.75;;;13.50;99.90;;;;;;5056358;28;20191;-72
2022/03/30 13:05:40;;;;;;;4.65;3.15;;;13.50;99.90;;;;;;5056215;28;20212;-72
2022/03/30 13:08:12;;;;;;;4.60;3.25;;;13.60;99.90;;;;;;5055569;28;20728;-71
2022/03/30 13:10:50;;;;;;;3.45;3.00;;;13.90;99.90;;;;;;5056628;28;20289;-71
2022/03/30 13:13:18;;;;;;;3.38;3.08;;;14.10;99.90;;;;;;5056902;28;20200;-71
2022/03/30 13:15:45;;;;;;;3.95;3.53;;;14.20;99.90;;;;;;5054687;28;20208;-70
2022/03/30 13:18:18;;;;;;;10.48;4.15;;;14.10;99.90;;;;;;5055631;28;20217;-70
2022/03/30 13:20:58;;;;;;;7.20;3.60;;;13.90;99.90;;;;;;5057838;28;20199;-70
2022/03/30 13:23:40;;;;;;;7.05;3.47;;;13.60;99.90;;;;;;5056086;28;20667;-70
2022/03/30 13:26:24;;;;;;;4.28;3.80;;;13.40;99.90;;;;;;5056499;28;20655;-70
2022/03/30 13:28:51;;;;;;;8.95;3.75;;;13.20;99.90;;;;;;5055812;28;20225;-70
2022/03/30 13:31:18;;;;;;;6.30;3.55;;;13.10;99.90;;;;;;5055905;28;20280;-70
2022/03/30 13:33:46;;;;;;;7.32;3.35;;;13.10;99.90;;;;;;5055916;28;20224;-70
2022/03/30 13:36:14;;;;;;;3.45;3.15;;;13.10;99.90;;;;;;5055854;28;20211;-70
2022/03/30 13:38:44;;;;;;;3.13;2.90;;;13.10;99.90;;;;;;5057776;28;20226;-70
2022/03/30 13:41:10;;;;;;;7.82;3.47;;;13.10;99.90;;;;;;5075169;28;20201;-70
2022/03/30 13:43:37;;;;;;;4.50;3.50;;;13.00;99.90;;;;;;5055467;28;20192;-70
2022/03/30 13:46:05;;;;;;;5.53;3.55;;;13.00;99.90;;;;;;5055042;28;20295;-70
2022/03/30 13:48:31;;;;;;;6.35;3.40;;;12.90;99.90;;;;;;5054968;28;20225;-70
2022/03/30 13:51:00;;;;;;;4.13;3.03;;;12.80;99.90;;;;;;5055799;28;20291;-70
2022/03/30 13:53:28;;;;;;;7.20;3.25;;;12.70;99.90;;;;;;5054841;28;20205;-70
2022/03/30 13:55:55;;;;;;;8.80;4.00;;;12.40;99.90;;;;;;5054631;28;20220;-70
2022/03/30 13:58:22;;;;;;;4.30;3.00;;;12.00;99.90;;;;;;5054742;28;20727;-70
2022/03/30 14:00:50;;;;;;;4.88;3.00;;;11.60;99.90;;;;;;5055416;28;20205;-70
2022/03/30 14:03:17;;;;;;;8.05;3.75;;;11.10;99.90;;;;;;5055042;28;20694;-70
2022/03/30 14:05:44;;;;;;;7.70;4.63;;;10.60;99.90;;;;;;5054482;28;20204;-70
2022/03/30 14:08:11;;;;;;;9.48;4.30;;;10.20;99.90;;;;;;5054349;28;20600;-70
2022/03/30 14:10:40;;;;;;;3.60;2.83;;;9.80;99.90;;;;;;5054686;28;20291;-70
2022/03/30 14:13:07;;;;;;;5.50;3.10;;;9.50;99.90;;;;;;5054394;28;20197;-70
2022/03/30 14:15:34;;;;;;;3.92;2.75;;;9.10;99.90;;;;;;5054248;28;20695;-70
2022/03/30 14:18:01;;;;;;;3.35;2.60;;;8.80;99.90;;;;;;5054177;28;20736;-70
2022/03/30 14:20:28;;;;;;;2.83;2.25;;;8.50;99.90;;;;;;5054207;28;20287;-70
2022/03/30 14:22:56;;;;;;;2.45;2.30;;;8.30;99.90;;;;;;5054776;28;20301;-70
2022/03/30 14:25:23;;;;;;;2.55;2.38;;;8.20;99.90;;;;;;5054324;28;20230;-70
2022/03/30 14:27:51;;;;;;;1.85;1.75;;;8.00;99.90;;;;;;5054103;28;20220;-71
2022/03/30 14:30:19;;;;;;;1.90;1.80;;;8.00;99.90;;;;;;5053958;28;20213;-70
2022/03/30 14:32:46;;;;;;;2.30;1.60;;;7.90;99.90;;;;;;5054221;28;20668;-70
2022/03/30 14:35:12;;;;;;;1.60;1.60;;;7.90;99.90;;;;;;5054333;28;20220;-70
2022/03/30 14:37:39;;;;;;;1.23;1.23;;;7.80;99.90;;;;;;5054182;28;20427;-70
2022/03/30 14:40:07;;;;;;;1.40;1.40;;;7.90;99.90;;;;;;5054242;28;20204;-70
2022/03/30 14:42:34;;;;;;;1.35;1.35;;;7.80;99.90;;;;;;5053846;28;20291;-69
2022/03/30 14:45:03;;;;;;;1.45;1.35;;;7.70;99.90;;;;;;5053773;28;20637;-69
2022/03/30 14:47:30;;;;;;;1.88;1.55;;;7.70;99.90;;;;;;5054050;28;20227;-69
2022/03/30 14:49:57;;;;;;;1.33;1.33;;;7.70;99.90;;;;;;5054022;28;20223;-69
2022/03/30 14:52:24;;;;;;;1.52;1.48;;;7.60;99.90;;;;;;5053914;28;20287;-69
2022/03/30 14:54:53;;;;;;;1.60;1.60;;;7.60;99.90;;;;;;5053795;28;20307;-69
2022/03/30 14:57:20;;;;;;;2.65;1.70;;;7.60;99.90;;;;;;5053708;28;20201;-69
2022/03/30 14:59:47;;;;;;;1.77;1.67;;;7.70;99.90;;;;;;5053392;28;20201;-69
2022/03/30 15:02:16;;;;;;;1.95;1.60;;;7.80;99.90;;;;;;5053768;28;20262;-69
2022/03/30 15:04:43;;;;;;;1.67;1.58;;;7.90;99.90;;;;;;5054098;28;20565;-70
2022/03/30 15:07:10;;;;;;;1.52;1.52;;;8.00;99.90;;;;;;5053793;28;20215;-69
2022/03/30 15:09:37;;;;;;;2.50;1.80;;;8.20;99.90;;;;;;5054069;28;20274;-69
2022/03/30 15:12:05;;;;;;;1.75;1.60;;;8.30;99.90;;;;;;5054432;28;20284;-69
2022/03/30 15:14:31;;;;;;;1.42;1.42;;;8.40;99.90;;;;;;5054468;28;20224;-69
2022/03/30 15:16:59;;;;;;;1.67;1.52;;;8.60;99.90;;;;;;5054533;28;20303;-69
2022/03/30 15:19:27;;;;;;;1.85;1.80;;;8.60;99.90;;;;;;5054255;28;20583;-69
2022/03/30 15:21:55;;;;;;;1.98;1.70;;;8.70;99.90;;;;;;5055346;28;20547;-69
2022/03/30 15:24:22;;;;;;;1.83;1.73;;;8.60;99.90;;;;;;5054901;28;20698;-69
2022/03/30 15:26:49;;;;;;;1.60;1.50;;;8.70;99.90;;;;;;5055111;28;20214;-69
2022/03/30 15:29:15;;;;;;;1.80;1.70;;;8.80;99.90;;;;;;5055891;28;20278;-69
2022/03/30 15:31:42;;;;;;;1.70;1.60;;;8.90;99.90;;;;;;5056900;28;20185;-72
2022/03/30 15:34:09;;;;;;;1.40;1.40;;;8.90;99.90;;;;;;5056671;28;20263;-69
2022/03/30 15:36:38;;;;;;;1.77;1.33;;;9.10;99.90;;;;;;5056490;28;20228;-69
2022/03/30 15:39:04;;;;;;;2.15;1.95;;;9.20;99.90;;;;;;5056139;28;20230;-69
2022/03/30 15:41:31;;;;;;;1.42;1.35;;;9.20;99.90;;;;;;5056164;28;20228;-68
2022/03/30 15:44:00;;;;;;;1.20;1.20;;;9.30;99.90;;;;;;5056429;28;20295;-68
2022/03/30 15:46:27;;;;;;;1.50;1.40;;;9.40;99.90;;;;;;5055834;28;20220;-69
2022/03/30 15:48:54;;;;;;;1.40;1.40;;;9.40;99.90;;;;;;5055982;28;20300;-69
2022/03/30 15:51:21;;;;;;;1.25;1.25;;;9.50;99.90;;;;;;5056542;28;20623;-70
2022/03/30 15:53:50;;;;;;;1.10;1.10;;;9.50;99.90;;;;;;5055987;28;20200;-69
2022/03/30 15:56:17;;;;;;;0.95;0.95;;;9.60;99.90;;;;;;5055833;28;20609;-70
2022/03/30 15:58:45;;;;;;;1.40;1.27;;;9.60;99.90;;;;;;5054496;28;20605;-70
2022/03/30 16:01:13;;;;;;;1.10;1.10;;;9.60;99.90;;;;;;5054496;28;20254;-70
2022/03/30 16:03:39;;;;;;;1.25;1.20;;;9.60;99.90;;;;;;5055800;28;20227;-70
2022/03/30 16:06:07;;;;;;;1.25;1.25;;;9.50;99.90;;;;;;5055068;28;20228;-70
2022/03/30 16:14:04;;;;;;;1.30;1.30;;;9.40;99.90;;;;;;5054330;28;20188;-70
2022/03/30 16:16:31;;;;;;;1.38;1.38;;;9.40;99.90;;;;;;5054315;28;20216;-70
2022/03/30 16:18:58;;;;;;;1.50;1.40;;;9.40;99.90;;;;;;5054117;28;20629;-70
2022/03/30 16:21:27;;;;;;;1.38;1.38;;;9.30;99.90;;;;;;5054843;28;20203;-70
2022/03/30 16:23:55;;;;;;;1.63;1.52;;;9.30;99.90;;;;;;5054797;28;20197;-70
2022/03/30 16:26:24;;;;;;;1.73;1.63;;;9.30;99.90;;;;;;5056350;28;20664;-70
2022/03/30 16:28:51;;;;;;;1.52;1.50;;;9.30;99.90;;;;;;5054879;28;20224;-70
2022/03/30 16:31:18;;;;;;;1.73;1.63;;;9.30;99.90;;;;;;5055143;28;20672;-70
2022/03/30 16:33:45;;;;;;;2.10;1.83;;;9.30;99.90;;;;;;5055465;28;20292;-70
2022/03/30 16:36:12;;;;;;;2.00;1.90;;;9.30;99.90;;;;;;5054565;28;20236;-70
2022/03/30 16:38:39;;;;;;;2.03;1.92;;;9.30;99.90;;;;;;5055255;28;20224;-71
2022/03/30 16:41:06;;;;;;;2.10;2.00;;;9.40;99.90;;;;;;5055886;28;20193;-70
2022/03/30 16:43:34;;;;;;;1.85;1.75;;;9.40;99.90;;;;;;5055724;28;20287;-70
2022/03/30 16:46:02;;;;;;;1.75;1.65;;;9.40;99.90;;;;;;5055091;28;20196;-71
2022/03/30 16:48:29;;;;;;;1.98;1.80;;;9.30;99.90;;;;;;5054387;28;20224;-69
2022/03/30 16:50:56;;;;;;;2.00;1.90;;;9.30;99.90;;;;;;5057101;28;20201;-70
2022/03/30 16:53:23;;;;;;;2.47;2.05;;;9.20;99.90;;;;;;5057924;28;20207;-69
2022/03/30 16:55:51;;;;;;;1.98;1.88;;;9.20;99.90;;;;;;5058363;28;20217;-70
2022/03/30 16:58:18;;;;;;;2.20;2.13;;;9.20;99.90;;;;;;5058152;28;20324;-70
2022/03/30 17:00:46;;;;;;;2.20;2.10;;;9.20;99.90;;;;;;5058611;28;20203;-70
2022/03/30 17:03:13;;;;;;;2.10;2.00;;;9.10;99.90;;;;;;5057152;28;20232;-70
2022/03/30 17:05:40;;;;;;;2.08;1.98;;;9.10;99.90;;;;;;5056244;28;20284;-70
2022/03/30 17:10:51;;;;;;;1.98;1.88;;;9.00;99.90;;;;;;5060893;28;20188;-71
2022/03/30 17:13:18;;;;;;;1.88;1.88;;;9.00;99.90;;;;;;5058716;28;20205;-70
2022/03/30 17:15:47;;;;;;;2.03;2.00;;;9.00;99.90;;;;;;5056075;28;20648;-70
2022/03/30 17:18:13;;;;;;;1.90;1.80;;;9.00;99.90;;;;;;5055962;28;20316;-70
2022/03/30 17:20:41;;;;;;;1.58;1.58;;;8.90;99.90;;;;;;5056094;28;20200;-70
2022/03/30 17:23:09;;;;;;;1.50;1.50;;;8.90;99.90;;;;;;5055978;28;20204;-70
2022/03/30 17:25:37;;;;;;;2.05;1.95;;;8.80;99.90;;;;;;5055930;28;20203;-70
2022/03/30 17:28:04;;;;;;;2.40;2.28;;;8.80;99.90;;;;;;5055836;28;20226;-70
2022/03/30 17:30:33;;;;;;;2.05;1.95;;;8.70;99.90;;;;;;5055386;28;20676;-70
2022/03/30 17:33:02;;;;;;;2.35;2.25;;;8.70;99.90;;;;;;5056057;28;20236;-70
2022/03/30 17:35:31;;;;;;;1.73;1.65;;;8.70;99.90;;;;;;5055761;28;20646;-71
2022/03/30 17:37:59;;;;;;;1.60;1.58;;;8.60;99.90;;;;;;5056061;28;20703;-71
2022/03/30 17:40:28;;;;;;;2.03;1.90;;;8.60;99.90;;;;;;5056877;28;20203;-72
2022/03/30 17:42:56;;;;;;;1.58;1.50;;;8.60;99.90;;;;;;5057043;28;20200;-72
2022/03/30 17:45:25;;;;;;;1.88;1.77;;;8.60;99.90;;;;;;5056040;28;20204;-72
2022/03/30 17:47:52;;;;;;;1.40;1.40;;;8.60;99.90;;;;;;5056009;28;20217;-72